Baltimore, Maryland
Traffic Map
Current Weather Conditions
Baltimore, Maryland
Broken Clouds
Broken Clouds
76°
Feels Like: 76°
Wind Chill: 76° Ceiling: 16000
Heat Index: 76° Visibility: 10mi
Dew Point: 66° Wind: 3mph
Humidity: 71% Direction: 90° (E)
Pressure: 30.12in Gusts: 0mph
Raw Report DataKBWI 272154Z 09003KT 10SM FEW037 SCT070 SCT120 BKN160 BKN250 24/19 A3012 RMK AO2 SLP197 CB DSNT NE AND DSNT SW MOV NE T02440189
Traffic Incident Summary
Active as of:
Severity:
Category:
InformationThere was an issue retrieving the traffic information for this location. Please try a different location or try again shortly.
Advertisements
Track Severe Weather on mobile